createdAt,value
2022-08-05T00:00:15.919Z,3.97
2022-08-05T00:02:50.733Z,4.00
2022-08-05T00:06:02.632Z,3.90
2022-08-05T00:08:30.867Z,3.60
2022-08-05T00:10:53.729Z,3.60
2022-08-05T00:13:20.507Z,3.70
2022-08-05T00:16:06.740Z,4.00
2022-08-05T00:18:36.349Z,3.90
2022-08-05T00:21:06.954Z,3.80
2022-08-05T00:23:46.229Z,8.55
2022-08-05T00:26:17.018Z,4.53
2022-08-05T00:28:45.728Z,4.83
2022-08-05T00:31:13.224Z,4.07
2022-08-05T00:34:56.930Z,4.10
2022-08-05T00:37:12.908Z,3.80
2022-08-05T00:39:13.908Z,3.80
2022-08-05T00:41:51.750Z,3.80
2022-08-05T00:44:21.578Z,3.80
2022-08-05T00:46:53.956Z,3.97
2022-08-05T00:49:32.349Z,4.00
2022-08-05T00:52:00.396Z,4.00
2022-08-05T00:54:27.961Z,3.90
2022-08-05T00:56:55.018Z,4.18
2022-08-05T00:59:21.641Z,4.22
2022-08-05T01:01:49.319Z,4.25
2022-08-05T01:04:16.185Z,4.38
2022-08-05T01:06:48.727Z,4.20
2022-08-05T01:09:17.279Z,4.50
2022-08-05T01:11:50.026Z,4.18
2022-08-05T01:14:27.915Z,3.97
2022-08-05T01:17:10.147Z,4.20
2022-08-05T01:20:01.682Z,4.03
2022-08-05T01:22:38.275Z,4.47
2022-08-05T01:25:40.825Z,4.80
2022-08-05T01:28:16.875Z,4.47
2022-08-05T01:31:08.964Z,4.30
2022-08-05T01:33:42.934Z,4.03
2022-08-05T01:36:19.021Z,4.25
2022-08-05T01:38:49.880Z,6.00
2022-08-05T01:41:21.688Z,4.60
2022-08-05T01:43:50.946Z,4.80
2022-08-05T01:46:41.968Z,4.60
2022-08-05T01:49:22.681Z,4.88
2022-08-05T01:51:56.307Z,5.47
2022-08-05T01:54:30.369Z,4.80
2022-08-05T01:58:10.383Z,4.60
2022-08-05T01:59:49.267Z,4.47
2022-08-05T02:02:20.059Z,4.45
2022-08-05T02:04:58.225Z,4.35
2022-08-05T02:07:25.726Z,4.40
2022-08-05T02:09:57.616Z,4.45
2022-08-05T02:12:33.174Z,4.40
2022-08-05T02:15:12.635Z,4.57
2022-08-05T02:18:32.941Z,4.75
2022-08-05T02:20:49.560Z,4.50
2022-08-05T02:23:22.542Z,4.50
2022-08-05T02:25:51.205Z,4.60
2022-08-05T02:28:28.651Z,4.40
2022-08-05T02:31:21.249Z,4.75
2022-08-05T02:33:57.549Z,4.63
2022-08-05T02:36:27.511Z,4.10
2022-08-05T02:39:00.228Z,4.10
2022-08-05T02:41:36.423Z,4.13
2022-08-05T02:44:17.936Z,4.60
2022-08-05T02:46:58.312Z,21.70
2022-08-05T02:49:36.773Z,5.88
2022-08-05T02:52:08.746Z,4.53
2022-08-05T02:54:41.368Z,4.10
2022-08-05T02:58:12.050Z,4.32
2022-08-05T03:00:01.586Z,4.28
2022-08-05T03:02:39.071Z,4.15
2022-08-05T03:05:09.401Z,4.63
2022-08-05T03:08:01.736Z,4.25
2022-08-05T03:10:25.678Z,4.30
2022-08-05T03:12:54.116Z,4.50
2022-08-05T03:15:23.711Z,4.20
2022-08-05T03:17:55.940Z,4.23
2022-08-05T03:20:24.827Z,4.50
2022-08-05T03:22:53.206Z,4.57
2022-08-05T03:25:33.904Z,4.25
2022-08-05T03:28:13.959Z,4.43
2022-08-05T03:30:42.399Z,4.70
2022-08-05T03:33:09.509Z,4.10
2022-08-05T03:35:40.761Z,4.20
2022-08-05T03:38:10.619Z,3.80
2022-08-05T03:40:41.031Z,4.00
2022-08-05T03:43:58.722Z,3.80
2022-08-05T03:45:55.109Z,4.47
2022-08-05T03:48:29.083Z,4.60
2022-08-05T03:52:35.347Z,4.60
2022-08-05T03:56:01.873Z,4.40
2022-08-05T03:56:50.120Z,4.40
2022-08-05T03:59:21.824Z,4.65
2022-08-05T04:01:53.623Z,4.10
2022-08-05T04:04:28.034Z,4.57
2022-08-05T04:06:55.560Z,4.78
2022-08-05T04:09:25.985Z,4.40
2022-08-05T04:11:56.416Z,4.18
2022-08-05T04:14:30.622Z,4.40
2022-08-05T04:17:00.492Z,4.30
2022-08-05T04:19:30.159Z,4.30
2022-08-05T04:22:08.602Z,5.23
2022-08-05T04:24:43.824Z,4.93
2022-08-05T04:27:12.949Z,4.38
2022-08-05T04:29:41.391Z,4.65
2022-08-05T04:32:09.286Z,4.57
2022-08-05T04:34:42.658Z,4.70
2022-08-05T04:37:09.906Z,4.57
2022-08-05T04:39:37.707Z,4.93
2022-08-05T04:42:06.240Z,4.22
2022-08-05T04:44:33.219Z,4.60
2022-08-05T04:47:00.107Z,4.50
2022-08-05T04:49:38.894Z,4.90
2022-08-05T04:52:24.197Z,4.75
2022-08-05T04:54:54.699Z,4.60
2022-08-05T04:57:29.262Z,4.72
2022-08-05T04:59:58.302Z,4.80
2022-08-05T05:02:36.136Z,5.00
2022-08-05T05:05:26.497Z,5.10
2022-08-05T05:08:06.708Z,7.50
2022-08-05T05:10:47.274Z,5.25
2022-08-05T05:13:22.768Z,4.97
2022-08-05T05:15:57.471Z,5.00
2022-08-05T05:18:31.646Z,5.25
2022-08-05T05:21:01.767Z,5.00
2022-08-05T05:23:39.407Z,4.95
2022-08-05T05:26:15.356Z,5.20
2022-08-05T05:28:42.924Z,5.13
2022-08-05T05:31:12.000Z,5.60
2022-08-05T05:33:58.610Z,5.05
2022-08-05T05:36:25.441Z,4.88
2022-08-05T05:38:57.105Z,4.80
2022-08-05T05:41:24.030Z,4.35
2022-08-05T05:43:57.319Z,4.65
2022-08-05T05:46:25.379Z,4.55
2022-08-05T05:48:52.047Z,4.80
2022-08-05T05:51:22.015Z,5.13
2022-08-05T05:53:58.079Z,5.00
2022-08-05T05:56:32.825Z,5.07
2022-08-05T05:59:06.456Z,5.10
2022-08-05T06:01:41.200Z,5.18
2022-08-05T06:04:24.807Z,4.87
2022-08-05T06:06:51.505Z,5.22
2022-08-05T06:09:26.634Z,6.13
2022-08-05T06:12:05.720Z,5.80
2022-08-05T06:14:36.342Z,6.90
2022-08-05T06:17:22.458Z,6.00
2022-08-05T06:19:57.232Z,5.43
2022-08-05T06:22:28.827Z,5.47
2022-08-05T06:24:55.880Z,6.15
2022-08-05T06:28:11.033Z,5.43
2022-08-05T06:30:17.773Z,5.40
2022-08-05T06:32:46.902Z,5.60
2022-08-05T06:35:22.111Z,5.60
2022-08-05T06:38:04.287Z,5.65
2022-08-05T06:40:36.977Z,5.70
2022-08-05T06:43:57.868Z,5.60
2022-08-05T06:46:06.828Z,4.60
2022-08-05T06:48:55.304Z,4.65
2022-08-05T06:51:29.370Z,3.80
2022-08-05T06:54:02.439Z,3.45
2022-08-05T06:56:33.321Z,3.80
2022-08-05T06:59:09.547Z,3.83
2022-08-05T07:01:40.908Z,4.00
2022-08-05T07:04:09.375Z,4.30
2022-08-05T07:06:36.988Z,4.60
2022-08-05T07:09:04.760Z,4.23
2022-08-05T07:11:33.027Z,4.05
2022-08-05T07:14:29.320Z,4.05
2022-08-05T07:17:58.198Z,4.20
2022-08-05T07:20:32.107Z,3.80
2022-08-05T07:22:37.138Z,4.00
2022-08-05T07:25:21.697Z,3.55
2022-08-05T07:27:57.793Z,3.83
2022-08-05T07:30:38.679Z,3.95
2022-08-05T07:33:10.406Z,4.10
2022-08-05T07:36:02.710Z,4.30
2022-08-05T07:38:33.677Z,4.40
2022-08-05T07:42:08.400Z,4.35
2022-08-05T07:44:02.833Z,4.22
2022-08-05T07:46:31.890Z,4.57
2022-08-05T07:49:05.828Z,4.23
2022-08-05T07:51:40.554Z,4.50
2022-08-05T07:54:15.886Z,4.10
2022-08-05T07:57:13.977Z,4.22
2022-08-05T07:59:39.918Z,3.90
2022-08-05T08:02:15.750Z,3.90
2022-08-05T08:04:48.343Z,3.72
2022-08-05T08:07:17.735Z,4.28
2022-08-05T08:09:45.152Z,3.90
2022-08-05T08:12:35.157Z,4.40
2022-08-05T08:15:03.535Z,4.00
2022-08-05T08:17:32.655Z,4.50
2022-08-05T08:20:21.859Z,4.00
2022-08-05T08:22:55.833Z,4.10
2022-08-05T08:25:27.119Z,4.40
2022-08-05T08:28:18.027Z,4.07
2022-08-05T08:30:48.029Z,3.72
2022-08-05T08:33:16.719Z,3.90
2022-08-05T08:35:53.151Z,3.60
2022-08-05T08:38:36.060Z,6.20
2022-08-05T08:41:10.428Z,4.00
2022-08-05T08:45:16.877Z,3.90
2022-08-05T08:46:31.115Z,4.10
2022-08-05T08:50:03.922Z,4.15
2022-08-05T08:52:02.928Z,4.05
2022-08-05T08:54:31.872Z,4.40
2022-08-05T08:56:59.540Z,4.50
2022-08-05T08:59:27.564Z,4.50
2022-08-05T09:01:57.002Z,5.15
2022-08-05T09:04:30.688Z,5.50
2022-08-05T09:06:58.488Z,5.33
2022-08-05T09:09:34.802Z,5.38
2022-08-05T09:12:20.050Z,5.22
2022-08-05T09:14:58.375Z,5.20
2022-08-05T09:17:42.687Z,4.85
2022-08-05T09:20:13.294Z,4.50
2022-08-05T09:23:05.151Z,4.15
2022-08-05T09:26:02.077Z,3.95
2022-08-05T09:28:24.297Z,3.40
2022-08-05T09:31:23.214Z,3.10
2022-08-05T09:34:01.311Z,3.30
2022-08-05T09:36:38.901Z,2.95
2022-08-05T09:39:22.471Z,3.00
2022-08-05T09:41:56.889Z,3.13
2022-08-05T09:44:39.153Z,3.28
2022-08-05T09:47:10.456Z,2.97
2022-08-05T09:50:01.610Z,3.15
2022-08-05T09:52:31.841Z,3.20
2022-08-05T09:55:55.530Z,2.88
2022-08-05T09:57:48.497Z,3.00
2022-08-05T10:00:18.741Z,3.13
2022-08-05T10:02:48.975Z,2.97
2022-08-05T10:05:18.644Z,2.92
2022-08-05T10:08:35.229Z,2.97
2022-08-05T10:10:50.393Z,3.10
2022-08-05T10:13:46.311Z,3.10
2022-08-05T10:16:41.845Z,2.92
2022-08-05T10:19:23.516Z,2.95
2022-08-05T10:22:09.081Z,2.70
2022-08-05T10:24:42.697Z,3.00
2022-08-05T10:27:16.610Z,3.30
2022-08-05T10:30:06.952Z,3.30
2022-08-05T10:32:55.633Z,3.42
2022-08-05T10:35:19.398Z,3.50
2022-08-05T10:37:47.722Z,3.70
2022-08-05T10:40:27.951Z,3.60
2022-08-05T10:43:04.735Z,3.40
2022-08-05T10:45:42.147Z,3.45
2022-08-05T10:48:52.572Z,4.20
2022-08-05T10:51:28.956Z,3.60
2022-08-05T10:54:01.867Z,3.60
2022-08-05T10:56:55.839Z,3.92
2022-08-05T11:00:02.569Z,3.50
2022-08-05T11:02:37.821Z,3.83
2022-08-05T11:05:09.496Z,3.92
2022-08-05T11:08:02.476Z,3.50
2022-08-05T11:10:37.259Z,3.60
2022-08-05T11:13:06.482Z,3.40
2022-08-05T11:16:00.068Z,3.90
2022-08-05T11:18:30.085Z,4.00
2022-08-05T11:20:59.860Z,3.97
2022-08-05T11:24:05.409Z,4.32
2022-08-05T11:26:32.510Z,4.13
2022-08-05T11:29:06.588Z,4.53
2022-08-05T11:31:58.294Z,4.18
2022-08-05T11:34:47.586Z,3.80
2022-08-05T11:38:29.105Z,3.83
2022-08-05T11:41:34.480Z,4.30
2022-08-05T11:44:05.616Z,4.00
2022-08-05T11:46:35.841Z,4.13
2022-08-05T11:49:05.361Z,3.90
2022-08-05T11:51:44.015Z,4.28
2022-08-05T11:54:33.896Z,4.63
2022-08-05T11:57:08.779Z,4.20
2022-08-05T11:59:50.800Z,4.30
2022-08-05T12:02:30.367Z,4.17
2022-08-05T12:05:00.401Z,4.10
2022-08-05T12:08:03.226Z,4.90
2022-08-05T12:10:24.766Z,4.38
2022-08-05T12:12:59.578Z,4.60
2022-08-05T12:15:33.247Z,4.30
2022-08-05T12:18:10.957Z,4.15
2022-08-05T12:20:39.407Z,4.38
2022-08-05T12:23:13.489Z,4.68
2022-08-05T12:25:53.870Z,4.60
2022-08-05T12:28:53.052Z,4.50
2022-08-05T12:31:23.462Z,4.60
2022-08-05T12:34:01.631Z,4.60
2022-08-05T12:36:30.888Z,4.20
2022-08-05T12:38:59.146Z,4.60
2022-08-05T12:41:34.398Z,4.57
2022-08-05T12:44:14.399Z,4.38
2022-08-05T12:46:54.398Z,4.77
2022-08-05T12:49:25.502Z,4.80
2022-08-05T12:52:13.827Z,4.95
2022-08-05T12:54:49.686Z,5.00
2022-08-05T12:57:17.083Z,5.15
2022-08-05T13:01:57.318Z,4.93
2022-08-05T13:02:36.048Z,5.50
2022-08-05T13:05:06.324Z,4.90
2022-08-05T13:07:59.579Z,4.70
2022-08-05T13:10:20.487Z,5.07
2022-08-05T13:12:51.146Z,4.60
2022-08-05T13:15:36.105Z,5.00
2022-08-05T13:18:08.570Z,5.18
2022-08-05T13:20:40.472Z,4.90
2022-08-05T13:23:07.635Z,4.90
2022-08-05T13:25:52.093Z,4.90
2022-08-05T13:28:22.306Z,4.30
2022-08-05T13:30:51.288Z,4.70
2022-08-05T13:34:25.160Z,4.90
2022-08-05T13:36:10.176Z,4.72
2022-08-05T13:38:38.433Z,4.97
2022-08-05T13:41:10.777Z,5.10
2022-08-05T13:43:44.396Z,5.22
2022-08-05T13:46:51.006Z,5.13
2022-08-05T13:49:09.917Z,4.97
2022-08-05T13:51:40.940Z,5.30
2022-08-05T13:54:11.962Z,4.88
2022-08-05T13:56:45.218Z,5.20
2022-08-05T13:59:21.332Z,5.20
2022-08-05T14:01:59.151Z,5.15
2022-08-05T14:04:51.609Z,5.37
2022-08-05T14:08:02.705Z,5.40
2022-08-05T14:10:28.434Z,5.28
2022-08-05T14:12:57.176Z,5.53
2022-08-05T14:16:08.733Z,5.15
2022-08-05T14:18:14.875Z,5.00
2022-08-05T14:20:48.807Z,5.07
2022-08-05T14:23:24.970Z,5.30
2022-08-05T14:25:58.382Z,4.90
2022-08-05T14:28:30.669Z,5.53
2022-08-05T14:30:58.928Z,5.30
2022-08-05T14:33:25.779Z,5.20
2022-08-05T14:35:54.504Z,5.10
2022-08-05T14:38:31.713Z,5.00
2022-08-05T14:41:05.695Z,5.38
2022-08-05T14:44:02.697Z,5.20
2022-08-05T14:46:22.875Z,5.03
2022-08-05T14:48:56.149Z,5.32
2022-08-05T14:51:24.063Z,4.90
2022-08-05T14:54:26.062Z,5.32
2022-08-05T14:56:44.076Z,5.43
2022-08-05T14:59:13.519Z,4.97
2022-08-05T15:01:48.395Z,5.30
2022-08-05T15:04:17.495Z,5.45
2022-08-05T15:06:49.332Z,5.22
2022-08-05T15:09:52.096Z,5.20
2022-08-05T15:12:05.982Z,5.05
2022-08-05T15:14:34.447Z,5.50
2022-08-05T15:17:04.698Z,5.35
2022-08-05T15:19:32.513Z,6.25
2022-08-05T15:22:01.330Z,5.77
2022-08-05T15:24:28.871Z,5.60
2022-08-05T15:26:55.929Z,6.57
2022-08-05T15:29:22.950Z,7.43
2022-08-05T15:31:53.048Z,7.72
2022-08-05T15:34:32.096Z,7.40
2022-08-05T15:37:02.361Z,8.80
2022-08-05T15:40:59.774Z,8.25
2022-08-05T15:42:54.786Z,8.10
2022-08-05T15:45:06.112Z,8.80
2022-08-05T15:47:33.006Z,8.43
2022-08-05T15:50:03.739Z,8.20
2022-08-05T15:52:53.089Z,8.18
2022-08-05T15:55:19.310Z,8.88
2022-08-05T15:57:51.449Z,8.50
2022-08-05T16:00:26.220Z,8.27
2022-08-05T16:02:59.994Z,8.07
2022-08-05T16:05:28.402Z,8.15
2022-08-05T16:07:55.410Z,8.30
2022-08-05T16:10:25.509Z,7.07
2022-08-05T16:12:55.928Z,6.50
2022-08-05T16:15:23.654Z,7.22
2022-08-05T16:17:57.762Z,7.10
2022-08-05T16:20:25.714Z,7.07
2022-08-05T16:22:54.720Z,7.05
2022-08-05T16:25:21.416Z,6.87
2022-08-05T16:28:05.150Z,6.78
2022-08-05T16:30:34.391Z,7.15
2022-08-05T16:33:03.245Z,7.00
2022-08-05T16:35:32.560Z,6.93
2022-08-05T16:38:16.316Z,7.40
2022-08-05T16:40:51.894Z,7.07
2022-08-05T16:43:24.131Z,6.65
2022-08-05T16:46:04.279Z,6.70
2022-08-05T16:48:36.627Z,6.47
2022-08-05T16:51:03.849Z,6.17
2022-08-05T16:54:04.705Z,7.47
2022-08-05T16:56:24.315Z,7.60
2022-08-05T16:58:51.194Z,7.28
2022-08-05T17:01:18.899Z,6.60
2022-08-05T17:03:46.210Z,5.80
2022-08-05T17:06:13.489Z,5.90
2022-08-05T17:08:52.676Z,5.38
2022-08-05T17:11:23.906Z,4.95
2022-08-05T17:14:00.413Z,4.40
2022-08-05T17:16:35.884Z,4.17
2022-08-05T17:19:07.491Z,4.30
2022-08-05T17:21:37.007Z,4.00
2022-08-05T17:24:19.689Z,3.90
2022-08-05T17:26:53.541Z,3.92
2022-08-05T17:29:33.772Z,3.57
2022-08-05T17:32:11.629Z,3.70
2022-08-05T17:34:46.214Z,3.80
2022-08-05T17:37:40.125Z,3.53
2022-08-05T17:40:10.151Z,3.70
2022-08-05T17:42:41.580Z,3.93
2022-08-05T17:45:20.646Z,3.80
2022-08-05T17:47:54.016Z,3.80
2022-08-05T17:50:28.808Z,4.03
2022-08-05T17:53:01.388Z,3.90
2022-08-05T17:55:37.712Z,3.80
2022-08-05T17:58:12.321Z,3.95
2022-08-05T18:00:44.912Z,4.40
2022-08-05T18:03:39.376Z,4.38
2022-08-05T18:06:05.647Z,4.68
2022-08-05T18:08:33.570Z,5.00
2022-08-05T18:11:01.212Z,5.22
2022-08-05T18:13:36.689Z,5.72
2022-08-05T18:16:13.584Z,5.18
2022-08-05T18:18:41.343Z,5.20
2022-08-05T18:21:19.862Z,5.43
2022-08-05T18:23:48.120Z,5.15
2022-08-05T18:26:14.836Z,5.30
2022-08-05T18:28:46.407Z,5.38
2022-08-05T18:31:13.411Z,5.60
2022-08-05T18:33:47.344Z,5.53
2022-08-05T18:36:19.223Z,5.53
2022-08-05T18:38:46.616Z,6.10
2022-08-05T18:41:56.161Z,5.80
2022-08-05T18:44:06.196Z,6.28
2022-08-05T18:46:34.536Z,5.67
2022-08-05T18:49:21.444Z,5.85
2022-08-05T18:52:08.822Z,5.60
2022-08-05T18:54:35.993Z,6.03
2022-08-05T18:57:09.604Z,5.85
2022-08-05T19:00:01.798Z,5.80
2022-08-05T19:02:29.529Z,5.70
2022-08-05T19:05:02.445Z,6.00
2022-08-05T19:07:47.895Z,6.15
2022-08-05T19:10:28.229Z,6.43
2022-08-05T19:12:58.824Z,6.00
2022-08-05T19:15:56.948Z,6.18
2022-08-05T19:18:21.027Z,6.38
2022-08-05T19:20:52.106Z,6.30
2022-08-05T19:23:22.544Z,6.32
2022-08-05T19:26:09.337Z,5.93
2022-08-05T19:28:41.990Z,6.15
2022-08-05T19:31:13.131Z,5.97
2022-08-05T19:33:48.238Z,6.10
2022-08-05T19:36:23.207Z,5.72
2022-08-05T19:38:49.889Z,5.70
2022-08-05T19:41:16.675Z,5.90
2022-08-05T19:44:05.530Z,5.60
2022-08-05T19:46:37.739Z,5.38
2022-08-05T19:49:07.322Z,5.75
2022-08-05T19:52:06.181Z,5.50
2022-08-05T19:54:29.390Z,5.10
2022-08-05T19:57:08.559Z,5.18
2022-08-05T19:59:59.353Z,5.30
2022-08-05T20:02:26.290Z,4.78
2022-08-05T20:04:55.399Z,4.40
2022-08-05T20:07:46.368Z,4.68
2022-08-05T20:10:13.791Z,4.78
2022-08-05T20:12:48.401Z,4.90
2022-08-05T20:15:48.691Z,4.32
2022-08-05T20:18:10.861Z,4.40
2022-08-05T20:20:55.991Z,4.45
2022-08-05T20:23:40.715Z,4.50
2022-08-05T20:26:15.175Z,5.18
2022-08-05T20:28:45.277Z,4.72
2022-08-05T20:31:12.228Z,4.50
2022-08-05T20:33:42.526Z,4.90
2022-08-05T20:36:10.179Z,5.20
2022-08-05T20:38:38.212Z,10.35
2022-08-05T20:41:24.004Z,5.50
2022-08-05T20:43:59.551Z,5.83
2022-08-05T20:46:29.453Z,5.70
2022-08-05T20:48:56.161Z,6.38
2022-08-05T20:51:23.235Z,6.78
2022-08-05T20:53:56.282Z,6.60
2022-08-05T20:56:29.857Z,4.80
2022-08-05T20:59:00.075Z,4.22
2022-08-05T21:01:38.716Z,3.20
2022-08-05T21:04:10.420Z,2.80
2022-08-05T21:06:45.854Z,3.20
2022-08-05T21:09:14.422Z,2.80
2022-08-05T21:12:10.519Z,2.33
2022-08-05T21:14:35.024Z,2.10
2022-08-05T21:17:05.860Z,2.28
2022-08-05T21:19:46.826Z,2.38
2022-08-05T21:22:23.559Z,2.60
2022-08-05T21:24:52.637Z,2.78
2022-08-05T21:27:24.603Z,2.50
2022-08-05T21:29:52.701Z,2.50
2022-08-05T21:32:27.164Z,2.30
2022-08-05T21:35:16.948Z,2.30
2022-08-05T21:37:47.401Z,2.40
2022-08-05T21:40:20.750Z,2.33
2022-08-05T21:42:47.739Z,2.20
2022-08-05T21:45:24.738Z,2.10
2022-08-05T21:47:56.077Z,2.20
2022-08-05T21:50:24.128Z,2.00
2022-08-05T21:52:50.945Z,2.25
2022-08-05T21:55:22.573Z,2.00
2022-08-05T21:58:05.798Z,1.92
2022-08-05T22:00:32.585Z,1.80
2022-08-05T22:02:59.807Z,1.77
2022-08-05T22:05:27.401Z,1.83
2022-08-05T22:07:59.531Z,2.10
2022-08-05T22:10:29.394Z,1.88
2022-08-05T22:12:58.866Z,1.90
2022-08-05T22:15:56.570Z,1.75
2022-08-05T22:18:14.585Z,1.90
2022-08-05T22:20:41.890Z,1.90
2022-08-05T22:24:01.382Z,1.52
2022-08-05T22:26:34.492Z,1.70
2022-08-05T22:29:02.735Z,2.60
2022-08-05T22:31:30.880Z,3.85
2022-08-05T22:34:12.934Z,5.30
2022-08-05T22:36:52.365Z,5.50
2022-08-05T22:39:21.512Z,6.60
2022-08-05T22:42:10.827Z,6.55
2022-08-05T22:44:35.092Z,6.78
2022-08-05T22:47:04.992Z,7.22
2022-08-05T22:50:19.393Z,7.60
2022-08-05T22:52:30.409Z,7.90
2022-08-05T22:55:01.116Z,7.82
2022-08-05T22:57:34.217Z,8.65
2022-08-05T23:00:07.736Z,9.43
2022-08-05T23:02:35.952Z,8.80
2022-08-05T23:05:12.985Z,8.80
2022-08-05T23:07:45.015Z,9.50
2022-08-05T23:10:16.400Z,10.13
2022-08-05T23:12:48.100Z,9.07
2022-08-05T23:15:18.930Z,10.18
2022-08-05T23:18:00.466Z,9.23
2022-08-05T23:20:30.179Z,9.05
2022-08-05T23:22:58.738Z,9.50
2022-08-05T23:25:52.197Z,9.65
2022-08-05T23:28:13.100Z,9.20
2022-08-05T23:30:43.427Z,10.07
2022-08-05T23:33:16.088Z,10.07
2022-08-05T23:35:49.030Z,9.77
2022-08-05T23:38:16.355Z,10.15
2022-08-05T23:40:49.399Z,10.00
2022-08-05T23:43:25.619Z,10.33
2022-08-05T23:46:19.749Z,11.55
2022-08-05T23:48:59.989Z,11.23
2022-08-05T23:51:52.891Z,9.90
2022-08-05T23:54:26.635Z,9.85
2022-08-05T23:57:03.293Z,11.00
2022-08-05T23:59:37.755Z,11.05
